sensor_id;sensor_type;location;lat;lon;timestamp;P1;durP1;ratioP1;P2;durP2;ratioP2
31308;SDS011;17936;52.446;10.840;2022-11-12T00:00:33;5.45;;;3.13;;
31308;SDS011;17936;52.446;10.840;2022-11-12T00:02:59;8.18;;;3.40;;
31308;SDS011;17936;52.446;10.840;2022-11-12T00:05:24;7.03;;;3.47;;
31308;SDS011;17936;52.446;10.840;2022-11-12T00:07:50;7.78;;;3.13;;
31308;SDS011;17936;52.446;10.840;2022-11-12T00:10:16;6.88;;;2.90;;
31308;SDS011;17936;52.446;10.840;2022-11-12T00:12:41;8.20;;;2.85;;
31308;SDS011;17936;52.446;10.840;2022-11-12T00:15:07;7.75;;;3.20;;
31308;SDS011;17936;52.446;10.840;2022-11-12T00:17:33;6.00;;;2.70;;
31308;SDS011;17936;52.446;10.840;2022-11-12T00:19:58;8.98;;;3.20;;
31308;SDS011;17936;52.446;10.840;2022-11-12T00:22:24;5.68;;;3.10;;
31308;SDS011;17936;52.446;10.840;2022-11-12T00:24:49;6.55;;;2.97;;
31308;SDS011;17936;52.446;10.840;2022-11-12T00:27:15;5.18;;;2.72;;
31308;SDS011;17936;52.446;10.840;2022-11-12T00:29:40;7.95;;;2.70;;
31308;SDS011;17936;52.446;10.840;2022-11-12T00:32:06;7.43;;;2.75;;
31308;SDS011;17936;52.446;10.840;2022-11-12T00:34:32;6.53;;;2.80;;
31308;SDS011;17936;52.446;10.840;2022-11-12T00:36:59;5.80;;;2.78;;
31308;SDS011;17936;52.446;10.840;2022-11-12T00:39:25;8.20;;;3.42;;
31308;SDS011;17936;52.446;10.840;2022-11-12T00:41:50;5.10;;;2.70;;
31308;SDS011;17936;52.446;10.840;2022-11-12T00:44:16;6.32;;;2.70;;
31308;SDS011;17936;52.446;10.840;2022-11-12T00:46:41;7.25;;;2.85;;
31308;SDS011;17936;52.446;10.840;2022-11-12T00:49:07;6.28;;;2.72;;
31308;SDS011;17936;52.446;10.840;2022-11-12T00:51:33;7.20;;;2.72;;
31308;SDS011;17936;52.446;10.840;2022-11-12T00:53:59;5.13;;;2.65;;
31308;SDS011;17936;52.446;10.840;2022-11-12T00:56:24;6.18;;;2.70;;
31308;SDS011;17936;52.446;10.840;2022-11-12T00:58:50;6.32;;;2.80;;
31308;SDS011;17936;52.446;10.840;2022-11-12T01:01:15;5.85;;;2.60;;
31308;SDS011;17936;52.446;10.840;2022-11-12T01:03:42;8.13;;;2.90;;
31308;SDS011;17936;52.446;10.840;2022-11-12T01:06:09;4.13;;;2.22;;
31308;SDS011;17936;52.446;10.840;2022-11-12T01:08:36;5.05;;;2.42;;
31308;SDS011;17936;52.446;10.840;2022-11-12T01:11:06;6.68;;;2.72;;
31308;SDS011;17936;52.446;10.840;2022-11-12T01:13:34;7.70;;;2.45;;
31308;SDS011;17936;52.446;10.840;2022-11-12T01:16:03;5.93;;;2.50;;
31308;SDS011;17936;52.446;10.840;2022-11-12T01:18:33;7.47;;;2.50;;
31308;SDS011;17936;52.446;10.840;2022-11-12T01:21:00;4.88;;;2.33;;
31308;SDS011;17936;52.446;10.840;2022-11-12T01:23:26;5.65;;;2.45;;
31308;SDS011;17936;52.446;10.840;2022-11-12T01:25:52;4.90;;;2.35;;
31308;SDS011;17936;52.446;10.840;2022-11-12T01:28:19;5.45;;;2.58;;
31308;SDS011;17936;52.446;10.840;2022-11-12T01:30:45;4.95;;;2.75;;
31308;SDS011;17936;52.446;10.840;2022-11-12T01:33:10;5.63;;;2.42;;
31308;SDS011;17936;52.446;10.840;2022-11-12T01:35:36;4.57;;;2.70;;
31308;SDS011;17936;52.446;10.840;2022-11-12T01:38:01;6.30;;;2.58;;
31308;SDS011;17936;52.446;10.840;2022-11-12T01:40:27;6.55;;;2.53;;
31308;SDS011;17936;52.446;10.840;2022-11-12T01:42:52;7.10;;;2.60;;
31308;SDS011;17936;52.446;10.840;2022-11-12T01:45:18;7.22;;;2.53;;
31308;SDS011;17936;52.446;10.840;2022-11-12T01:47:45;6.25;;;2.03;;
31308;SDS011;17936;52.446;10.840;2022-11-12T01:50:20;4.13;;;2.35;;
31308;SDS011;17936;52.446;10.840;2022-11-12T01:52:50;5.07;;;2.55;;
31308;SDS011;17936;52.446;10.840;2022-11-12T01:55:23;5.65;;;2.28;;
31308;SDS011;17936;52.446;10.840;2022-11-12T01:57:53;3.38;;;2.08;;
31308;SDS011;17936;52.446;10.840;2022-11-12T02:02:53;3.90;;;2.25;;
31308;SDS011;17936;52.446;10.840;2022-11-12T02:05:22;5.53;;;2.38;;
31308;SDS011;17936;52.446;10.840;2022-11-12T02:07:50;6.90;;;2.45;;
31308;SDS011;17936;52.446;10.840;2022-11-12T02:10:18;7.07;;;2.67;;
31308;SDS011;17936;52.446;10.840;2022-11-12T02:12:44;6.93;;;2.50;;
31308;SDS011;17936;52.446;10.840;2022-11-12T02:15:29;6.05;;;2.60;;
31308;SDS011;17936;52.446;10.840;2022-11-12T02:17:54;6.38;;;2.50;;
31308;SDS011;17936;52.446;10.840;2022-11-12T02:20:20;5.10;;;2.28;;
31308;SDS011;17936;52.446;10.840;2022-11-12T02:22:46;7.10;;;2.33;;
31308;SDS011;17936;52.446;10.840;2022-11-12T02:25:12;3.80;;;2.40;;
31308;SDS011;17936;52.446;10.840;2022-11-12T02:27:41;3.95;;;2.08;;
31308;SDS011;17936;52.446;10.840;2022-11-12T02:30:07;4.20;;;2.47;;
31308;SDS011;17936;52.446;10.840;2022-11-12T02:32:33;5.25;;;2.60;;
31308;SDS011;17936;52.446;10.840;2022-11-12T02:34:59;5.07;;;2.65;;
31308;SDS011;17936;52.446;10.840;2022-11-12T02:37:24;3.85;;;2.15;;
31308;SDS011;17936;52.446;10.840;2022-11-12T02:39:50;4.90;;;2.30;;
31308;SDS011;17936;52.446;10.840;2022-11-12T02:42:15;4.45;;;2.30;;
31308;SDS011;17936;52.446;10.840;2022-11-12T02:44:40;4.28;;;2.50;;
31308;SDS011;17936;52.446;10.840;2022-11-12T02:47:06;4.88;;;2.42;;
31308;SDS011;17936;52.446;10.840;2022-11-12T02:49:32;4.95;;;2.35;;
31308;SDS011;17936;52.446;10.840;2022-11-12T02:51:57;5.90;;;2.50;;
31308;SDS011;17936;52.446;10.840;2022-11-12T02:54:23;7.22;;;2.85;;
31308;SDS011;17936;52.446;10.840;2022-11-12T02:56:48;4.55;;;2.53;;
31308;SDS011;17936;52.446;10.840;2022-11-12T02:59:14;5.60;;;2.63;;
31308;SDS011;17936;52.446;10.840;2022-11-12T03:01:39;7.47;;;2.75;;
31308;SDS011;17936;52.446;10.840;2022-11-12T03:04:04;5.55;;;3.25;;
31308;SDS011;17936;52.446;10.840;2022-11-12T03:06:30;6.95;;;3.10;;
31308;SDS011;17936;52.446;10.840;2022-11-12T03:08:55;5.90;;;2.58;;
31308;SDS011;17936;52.446;10.840;2022-11-12T03:11:21;8.20;;;3.88;;
31308;SDS011;17936;52.446;10.840;2022-11-12T03:13:46;8.02;;;3.20;;
31308;SDS011;17936;52.446;10.840;2022-11-12T03:16:12;5.78;;;3.45;;
31308;SDS011;17936;52.446;10.840;2022-11-12T03:18:37;6.45;;;3.53;;
31308;SDS011;17936;52.446;10.840;2022-11-12T03:21:03;4.65;;;3.00;;
31308;SDS011;17936;52.446;10.840;2022-11-12T03:23:29;7.88;;;3.05;;
31308;SDS011;17936;52.446;10.840;2022-11-12T03:25:55;7.63;;;3.28;;
31308;SDS011;17936;52.446;10.840;2022-11-12T03:28:21;8.35;;;3.40;;
31308;SDS011;17936;52.446;10.840;2022-11-12T03:30:46;7.65;;;3.58;;
31308;SDS011;17936;52.446;10.840;2022-11-12T03:33:12;7.70;;;3.53;;
31308;SDS011;17936;52.446;10.840;2022-11-12T03:35:39;9.32;;;3.72;;
31308;SDS011;17936;52.446;10.840;2022-11-12T03:38:05;7.35;;;4.07;;
31308;SDS011;17936;52.446;10.840;2022-11-12T03:40:31;9.30;;;4.60;;
31308;SDS011;17936;52.446;10.840;2022-11-12T03:42:57;7.18;;;3.95;;
31308;SDS011;17936;52.446;10.840;2022-11-12T03:45:25;7.82;;;3.72;;
31308;SDS011;17936;52.446;10.840;2022-11-12T03:47:52;7.95;;;4.43;;
31308;SDS011;17936;52.446;10.840;2022-11-12T03:50:20;8.48;;;4.05;;
31308;SDS011;17936;52.446;10.840;2022-11-12T03:52:48;6.93;;;3.92;;
31308;SDS011;17936;52.446;10.840;2022-11-12T03:55:17;9.90;;;4.65;;
31308;SDS011;17936;52.446;10.840;2022-11-12T03:57:44;7.22;;;3.58;;
31308;SDS011;17936;52.446;10.840;2022-11-12T04:00:12;8.57;;;3.85;;
31308;SDS011;17936;52.446;10.840;2022-11-12T04:02:38;9.55;;;4.20;;
31308;SDS011;17936;52.446;10.840;2022-11-12T04:05:04;6.50;;;3.30;;
31308;SDS011;17936;52.446;10.840;2022-11-12T04:07:56;7.43;;;3.53;;
31308;SDS011;17936;52.446;10.840;2022-11-12T04:10:46;8.40;;;3.67;;
31308;SDS011;17936;52.446;10.840;2022-11-12T04:13:12;7.97;;;3.55;;
31308;SDS011;17936;52.446;10.840;2022-11-12T04:15:56;6.43;;;3.25;;
31308;SDS011;17936;52.446;10.840;2022-11-12T04:18:45;4.88;;;2.90;;
31308;SDS011;17936;52.446;10.840;2022-11-12T04:21:32;5.43;;;2.67;;
31308;SDS011;17936;52.446;10.840;2022-11-12T04:24:23;8.68;;;3.70;;
31308;SDS011;17936;52.446;10.840;2022-11-12T04:27:17;8.20;;;2.95;;
31308;SDS011;17936;52.446;10.840;2022-11-12T04:29:50;8.85;;;3.53;;
31308;SDS011;17936;52.446;10.840;2022-11-12T04:32:39;8.73;;;3.10;;
31308;SDS011;17936;52.446;10.840;2022-11-12T04:35:11;6.00;;;3.00;;
31308;SDS011;17936;52.446;10.840;2022-11-12T04:37:37;7.47;;;3.10;;
31308;SDS011;17936;52.446;10.840;2022-11-12T04:43:04;6.20;;;2.80;;
31308;SDS011;17936;52.446;10.840;2022-11-12T04:45:51;7.60;;;2.90;;
31308;SDS011;17936;52.446;10.840;2022-11-12T04:48:18;7.63;;;3.10;;
31308;SDS011;17936;52.446;10.840;2022-11-12T04:50:46;4.68;;;2.97;;
31308;SDS011;17936;52.446;10.840;2022-11-12T04:53:14;4.78;;;2.78;;
31308;SDS011;17936;52.446;10.840;2022-11-12T04:55:39;7.03;;;3.05;;
31308;SDS011;17936;52.446;10.840;2022-11-12T04:58:05;5.32;;;3.05;;
31308;SDS011;17936;52.446;10.840;2022-11-12T05:00:30;6.45;;;3.22;;
31308;SDS011;17936;52.446;10.840;2022-11-12T05:02:56;5.93;;;3.28;;
31308;SDS011;17936;52.446;10.840;2022-11-12T05:05:21;7.25;;;3.33;;
31308;SDS011;17936;52.446;10.840;2022-11-12T05:07:47;6.20;;;2.80;;
31308;SDS011;17936;52.446;10.840;2022-11-12T05:10:12;8.45;;;3.28;;
31308;SDS011;17936;52.446;10.840;2022-11-12T05:12:38;5.05;;;3.13;;
31308;SDS011;17936;52.446;10.840;2022-11-12T05:15:04;6.60;;;2.83;;
31308;SDS011;17936;52.446;10.840;2022-11-12T05:17:30;6.65;;;2.95;;
31308;SDS011;17936;52.446;10.840;2022-11-12T05:19:55;3.63;;;2.33;;
31308;SDS011;17936;52.446;10.840;2022-11-12T05:22:21;5.30;;;2.40;;
31308;SDS011;17936;52.446;10.840;2022-11-12T05:24:46;3.28;;;1.92;;
31308;SDS011;17936;52.446;10.840;2022-11-12T05:27:19;3.80;;;1.92;;
31308;SDS011;17936;52.446;10.840;2022-11-12T05:29:45;6.60;;;1.75;;
31308;SDS011;17936;52.446;10.840;2022-11-12T05:32:12;2.88;;;1.55;;
31308;SDS011;17936;52.446;10.840;2022-11-12T05:34:40;3.03;;;1.80;;
31308;SDS011;17936;52.446;10.840;2022-11-12T05:37:06;2.92;;;1.67;;
31308;SDS011;17936;52.446;10.840;2022-11-12T05:39:32;3.05;;;1.90;;
31308;SDS011;17936;52.446;10.840;2022-11-12T05:41:58;3.30;;;1.85;;
31308;SDS011;17936;52.446;10.840;2022-11-12T05:44:24;2.75;;;1.42;;
31308;SDS011;17936;52.446;10.840;2022-11-12T05:46:49;5.05;;;1.73;;
31308;SDS011;17936;52.446;10.840;2022-11-12T05:49:16;2.83;;;1.60;;
31308;SDS011;17936;52.446;10.840;2022-11-12T05:51:42;4.55;;;1.80;;
31308;SDS011;17936;52.446;10.840;2022-11-12T05:54:08;3.28;;;1.58;;
31308;SDS011;17936;52.446;10.840;2022-11-12T05:56:34;2.63;;;1.60;;
31308;SDS011;17936;52.446;10.840;2022-11-12T05:59:01;3.15;;;1.85;;
31308;SDS011;17936;52.446;10.840;2022-11-12T06:01:28;4.00;;;1.65;;
31308;SDS011;17936;52.446;10.840;2022-11-12T06:03:55;3.47;;;1.80;;
31308;SDS011;17936;52.446;10.840;2022-11-12T06:06:20;2.90;;;1.75;;
31308;SDS011;17936;52.446;10.840;2022-11-12T06:08:46;3.00;;;1.83;;
31308;SDS011;17936;52.446;10.840;2022-11-12T06:11:12;3.83;;;2.30;;
31308;SDS011;17936;52.446;10.840;2022-11-12T06:13:37;4.35;;;2.17;;
31308;SDS011;17936;52.446;10.840;2022-11-12T06:16:03;4.32;;;2.40;;
31308;SDS011;17936;52.446;10.840;2022-11-12T06:18:29;4.50;;;2.05;;
31308;SDS011;17936;52.446;10.840;2022-11-12T06:21:01;3.00;;;2.13;;
31308;SDS011;17936;52.446;10.840;2022-11-12T06:23:49;5.75;;;2.47;;
31308;SDS011;17936;52.446;10.840;2022-11-12T06:26:17;3.63;;;1.85;;
31308;SDS011;17936;52.446;10.840;2022-11-12T06:28:44;2.45;;;1.60;;
31308;SDS011;17936;52.446;10.840;2022-11-12T06:31:10;4.18;;;2.17;;
31308;SDS011;17936;52.446;10.840;2022-11-12T06:33:35;4.10;;;2.17;;
31308;SDS011;17936;52.446;10.840;2022-11-12T06:36:02;5.35;;;2.08;;
31308;SDS011;17936;52.446;10.840;2022-11-12T06:38:29;5.00;;;2.78;;
31308;SDS011;17936;52.446;10.840;2022-11-12T06:40:58;4.60;;;2.28;;
31308;SDS011;17936;52.446;10.840;2022-11-12T06:43:24;3.97;;;1.95;;
31308;SDS011;17936;52.446;10.840;2022-11-12T06:45:51;4.30;;;2.35;;
31308;SDS011;17936;52.446;10.840;2022-11-12T06:48:17;4.32;;;2.10;;
31308;SDS011;17936;52.446;10.840;2022-11-12T06:50:42;5.63;;;2.95;;
31308;SDS011;17936;52.446;10.840;2022-11-12T06:53:08;5.10;;;2.90;;
31308;SDS011;17936;52.446;10.840;2022-11-12T06:55:33;5.50;;;2.50;;
31308;SDS011;17936;52.446;10.840;2022-11-12T06:57:59;4.10;;;2.35;;
31308;SDS011;17936;52.446;10.840;2022-11-12T07:00:24;7.22;;;2.67;;
31308;SDS011;17936;52.446;10.840;2022-11-12T07:02:50;5.82;;;2.90;;
31308;SDS011;17936;52.446;10.840;2022-11-12T07:05:15;6.07;;;2.38;;
31308;SDS011;17936;52.446;10.840;2022-11-12T07:07:41;7.95;;;2.65;;
31308;SDS011;17936;52.446;10.840;2022-11-12T07:10:06;4.60;;;2.80;;
31308;SDS011;17936;52.446;10.840;2022-11-12T07:12:32;5.05;;;2.45;;
31308;SDS011;17936;52.446;10.840;2022-11-12T07:14:58;8.82;;;3.08;;
31308;SDS011;17936;52.446;10.840;2022-11-12T07:17:24;5.45;;;3.17;;
31308;SDS011;17936;52.446;10.840;2022-11-12T07:19:49;12.13;;;3.63;;
31308;SDS011;17936;52.446;10.840;2022-11-12T07:22:15;11.05;;;3.50;;
31308;SDS011;17936;52.446;10.840;2022-11-12T07:24:40;10.15;;;3.47;;
31308;SDS011;17936;52.446;10.840;2022-11-12T07:27:06;6.28;;;3.17;;
31308;SDS011;17936;52.446;10.840;2022-11-12T07:29:31;11.10;;;4.70;;
31308;SDS011;17936;52.446;10.840;2022-11-12T07:31:57;20.40;;;5.32;;
31308;SDS011;17936;52.446;10.840;2022-11-12T07:34:22;25.90;;;6.03;;
31308;SDS011;17936;52.446;10.840;2022-11-12T07:36:48;97.43;;;20.92;;
31308;SDS011;17936;52.446;10.840;2022-11-12T07:39:15;48.63;;;12.90;;
31308;SDS011;17936;52.446;10.840;2022-11-12T07:41:41;18.95;;;5.65;;
31308;SDS011;17936;52.446;10.840;2022-11-12T07:44:07;11.35;;;4.05;;
31308;SDS011;17936;52.446;10.840;2022-11-12T07:46:32;8.57;;;4.00;;
31308;SDS011;17936;52.446;10.840;2022-11-12T07:48:58;14.55;;;6.25;;
31308;SDS011;17936;52.446;10.840;2022-11-12T07:51:25;9.57;;;4.95;;
31308;SDS011;17936;52.446;10.840;2022-11-12T07:53:52;7.72;;;3.63;;
31308;SDS011;17936;52.446;10.840;2022-11-12T07:56:20;9.00;;;3.38;;
31308;SDS011;17936;52.446;10.840;2022-11-12T07:58:47;6.75;;;3.78;;
31308;SDS011;17936;52.446;10.840;2022-11-12T08:03:58;7.63;;;4.15;;
31308;SDS011;17936;52.446;10.840;2022-11-12T08:06:25;8.15;;;3.80;;
31308;SDS011;17936;52.446;10.840;2022-11-12T08:08:51;7.28;;;4.15;;
31308;SDS011;17936;52.446;10.840;2022-11-12T08:11:20;5.63;;;3.20;;
31308;SDS011;17936;52.446;10.840;2022-11-12T08:13:46;6.57;;;3.47;;
31308;SDS011;17936;52.446;10.840;2022-11-12T08:16:12;6.05;;;3.10;;
31308;SDS011;17936;52.446;10.840;2022-11-12T08:18:37;6.45;;;3.40;;
31308;SDS011;17936;52.446;10.840;2022-11-12T08:21:04;6.93;;;3.03;;
31308;SDS011;17936;52.446;10.840;2022-11-12T08:23:31;6.03;;;2.95;;
31308;SDS011;17936;52.446;10.840;2022-11-12T08:25:58;4.68;;;2.42;;
31308;SDS011;17936;52.446;10.840;2022-11-12T08:28:24;5.10;;;3.17;;
31308;SDS011;17936;52.446;10.840;2022-11-12T08:30:51;4.80;;;2.35;;
31308;SDS011;17936;52.446;10.840;2022-11-12T08:33:17;4.60;;;2.97;;
31308;SDS011;17936;52.446;10.840;2022-11-12T08:35:43;4.30;;;2.22;;
31308;SDS011;17936;52.446;10.840;2022-11-12T08:38:08;5.07;;;2.85;;
31308;SDS011;17936;52.446;10.840;2022-11-12T08:40:35;3.95;;;2.50;;
31308;SDS011;17936;52.446;10.840;2022-11-12T08:43:05;5.45;;;2.90;;
31308;SDS011;17936;52.446;10.840;2022-11-12T08:45:32;8.65;;;3.20;;
31308;SDS011;17936;52.446;10.840;2022-11-12T08:48:00;5.05;;;2.92;;
31308;SDS011;17936;52.446;10.840;2022-11-12T08:50:28;5.00;;;2.58;;
31308;SDS011;17936;52.446;10.840;2022-11-12T08:55:27;7.70;;;3.63;;
31308;SDS011;17936;52.446;10.840;2022-11-12T08:57:53;5.57;;;3.17;;
31308;SDS011;17936;52.446;10.840;2022-11-12T09:00:19;4.70;;;2.38;;
31308;SDS011;17936;52.446;10.840;2022-11-12T09:02:45;4.63;;;2.70;;
31308;SDS011;17936;52.446;10.840;2022-11-12T09:05:10;4.75;;;2.95;;
31308;SDS011;17936;52.446;10.840;2022-11-12T09:07:36;4.20;;;2.50;;
31308;SDS011;17936;52.446;10.840;2022-11-12T09:10:01;6.35;;;2.85;;
31308;SDS011;17936;52.446;10.840;2022-11-12T09:12:27;6.40;;;3.13;;
31308;SDS011;17936;52.446;10.840;2022-11-12T09:14:53;4.53;;;2.63;;
31308;SDS011;17936;52.446;10.840;2022-11-12T09:17:20;3.88;;;2.40;;
31308;SDS011;17936;52.446;10.840;2022-11-12T09:19:45;5.93;;;2.88;;
31308;SDS011;17936;52.446;10.840;2022-11-12T09:22:11;7.78;;;2.67;;
31308;SDS011;17936;52.446;10.840;2022-11-12T09:24:36;6.38;;;2.90;;
31308;SDS011;17936;52.446;10.840;2022-11-12T09:27:02;4.38;;;2.45;;
31308;SDS011;17936;52.446;10.840;2022-11-12T09:29:27;4.88;;;3.20;;
31308;SDS011;17936;52.446;10.840;2022-11-12T09:31:53;6.47;;;3.45;;
31308;SDS011;17936;52.446;10.840;2022-11-12T09:34:18;6.97;;;3.63;;
31308;SDS011;17936;52.446;10.840;2022-11-12T09:36:44;7.53;;;4.15;;
31308;SDS011;17936;52.446;10.840;2022-11-12T09:39:09;15.38;;;5.80;;
31308;SDS011;17936;52.446;10.840;2022-11-12T09:41:35;10.20;;;4.43;;
31308;SDS011;17936;52.446;10.840;2022-11-12T09:44:04;9.98;;;4.53;;
31308;SDS011;17936;52.446;10.840;2022-11-12T09:46:37;12.75;;;5.75;;
31308;SDS011;17936;52.446;10.840;2022-11-12T09:49:30;59.55;;;19.42;;
31308;SDS011;17936;52.446;10.840;2022-11-12T09:52:09;10.73;;;5.95;;
31308;SDS011;17936;52.446;10.840;2022-11-12T09:54:43;11.77;;;4.85;;
31308;SDS011;17936;52.446;10.840;2022-11-12T09:57:12;10.20;;;4.40;;
31308;SDS011;17936;52.446;10.840;2022-11-12T09:59:39;31.73;;;11.13;;
31308;SDS011;17936;52.446;10.840;2022-11-12T10:05:02;13.68;;;4.38;;
31308;SDS011;17936;52.446;10.840;2022-11-12T10:07:45;19.13;;;4.80;;
31308;SDS011;17936;52.446;10.840;2022-11-12T10:22:10;8.10;;;3.65;;
31308;SDS011;17936;52.446;10.840;2022-11-12T10:24:42;9.25;;;4.00;;
31308;SDS011;17936;52.446;10.840;2022-11-12T10:27:16;6.50;;;3.22;;
31308;SDS011;17936;52.446;10.840;2022-11-12T10:29:50;8.57;;;3.67;;
31308;SDS011;17936;52.446;10.840;2022-11-12T10:32:21;9.63;;;3.22;;
31308;SDS011;17936;52.446;10.840;2022-11-12T10:34:46;6.82;;;3.22;;
31308;SDS011;17936;52.446;10.840;2022-11-12T10:39:57;7.80;;;3.20;;
31308;SDS011;17936;52.446;10.840;2022-11-12T10:42:23;11.68;;;3.55;;
31308;SDS011;17936;52.446;10.840;2022-11-12T10:44:48;6.20;;;3.17;;
31308;SDS011;17936;52.446;10.840;2022-11-12T10:50:05;9.10;;;3.15;;
31308;SDS011;17936;52.446;10.840;2022-11-12T10:52:40;7.43;;;3.38;;
31308;SDS011;17936;52.446;10.840;2022-11-12T10:55:28;6.18;;;3.28;;
31308;SDS011;17936;52.446;10.840;2022-11-12T11:03:37;11.95;;;5.00;;
31308;SDS011;17936;52.446;10.840;2022-11-12T11:08:49;6.25;;;3.00;;
31308;SDS011;17936;52.446;10.840;2022-11-12T11:13:46;5.10;;;2.85;;
31308;SDS011;17936;52.446;10.840;2022-11-12T11:16:14;5.78;;;2.67;;
31308;SDS011;17936;52.446;10.840;2022-11-12T11:18:44;7.60;;;2.90;;
31308;SDS011;17936;52.446;10.840;2022-11-12T11:21:29;6.32;;;2.90;;
31308;SDS011;17936;52.446;10.840;2022-11-12T11:29:19;7.03;;;2.60;;
31308;SDS011;17936;52.446;10.840;2022-11-12T11:37:31;6.90;;;2.63;;
31308;SDS011;17936;52.446;10.840;2022-11-12T11:42:50;4.88;;;2.33;;
31308;SDS011;17936;52.446;10.840;2022-11-12T11:48:42;7.28;;;2.70;;
31308;SDS011;17936;52.446;10.840;2022-11-12T11:57:09;4.28;;;1.98;;
31308;SDS011;17936;52.446;10.840;2022-11-12T12:02:41;6.75;;;2.63;;
31308;SDS011;17936;52.446;10.840;2022-11-12T12:08:33;6.60;;;2.15;;
31308;SDS011;17936;52.446;10.840;2022-11-12T12:11:20;5.20;;;2.15;;
31308;SDS011;17936;52.446;10.840;2022-11-12T12:19:50;8.32;;;2.10;;
31308;SDS011;17936;52.446;10.840;2022-11-12T12:22:40;3.47;;;1.80;;
31308;SDS011;17936;52.446;10.840;2022-11-12T12:25:14;4.97;;;2.30;;
31308;SDS011;17936;52.446;10.840;2022-11-12T12:27:48;4.35;;;1.92;;
31308;SDS011;17936;52.446;10.840;2022-11-12T12:30:24;8.63;;;2.13;;
31308;SDS011;17936;52.446;10.840;2022-11-12T12:35:30;3.92;;;1.85;;
31308;SDS011;17936;52.446;10.840;2022-11-12T12:46:11;4.63;;;1.88;;
31308;SDS011;17936;52.446;10.840;2022-11-12T12:48:40;6.80;;;2.33;;
31308;SDS011;17936;52.446;10.840;2022-11-12T12:51:07;9.65;;;2.63;;
31308;SDS011;17936;52.446;10.840;2022-11-12T12:53:34;3.85;;;2.03;;
31308;SDS011;17936;52.446;10.840;2022-11-12T12:56:02;5.40;;;2.22;;
31308;SDS011;17936;52.446;10.840;2022-11-12T12:58:49;6.43;;;2.13;;
31308;SDS011;17936;52.446;10.840;2022-11-12T13:03:56;6.72;;;2.30;;
31308;SDS011;17936;52.446;10.840;2022-11-12T13:09:00;8.80;;;2.45;;
31308;SDS011;17936;52.446;10.840;2022-11-12T13:11:50;7.45;;;2.70;;
31308;SDS011;17936;52.446;10.840;2022-11-12T13:19:32;7.63;;;2.55;;
31308;SDS011;17936;52.446;10.840;2022-11-12T13:35:13;9.43;;;2.45;;
31308;SDS011;17936;52.446;10.840;2022-11-12T13:37:50;7.68;;;1.90;;
31308;SDS011;17936;52.446;10.840;2022-11-12T13:43:35;5.93;;;2.38;;
31308;SDS011;17936;52.446;10.840;2022-11-12T13:53:38;8.48;;;2.20;;
31308;SDS011;17936;52.446;10.840;2022-11-12T13:56:04;5.80;;;2.08;;
31308;SDS011;17936;52.446;10.840;2022-11-12T13:58:33;5.25;;;2.00;;
31308;SDS011;17936;52.446;10.840;2022-11-12T14:01:00;5.80;;;2.22;;
31308;SDS011;17936;52.446;10.840;2022-11-12T14:03:49;5.45;;;2.00;;
31308;SDS011;17936;52.446;10.840;2022-11-12T14:11:54;6.90;;;2.00;;
31308;SDS011;17936;52.446;10.840;2022-11-12T14:17:10;8.90;;;2.63;;
31308;SDS011;17936;52.446;10.840;2022-11-12T14:20:19;9.90;;;3.10;;
31308;SDS011;17936;52.446;10.840;2022-11-12T14:22:50;5.28;;;2.67;;
31308;SDS011;17936;52.446;10.840;2022-11-12T14:25:18;11.57;;;3.47;;
31308;SDS011;17936;52.446;10.840;2022-11-12T14:27:47;7.15;;;3.00;;
31308;SDS011;17936;52.446;10.840;2022-11-12T14:32:45;8.55;;;3.40;;
31308;SDS011;17936;52.446;10.840;2022-11-12T14:37:53;7.10;;;3.28;;
31308;SDS011;17936;52.446;10.840;2022-11-12T14:40:25;5.45;;;3.10;;
31308;SDS011;17936;52.446;10.840;2022-11-12T14:42:52;7.82;;;3.08;;
31308;SDS011;17936;52.446;10.840;2022-11-12T14:45:19;9.55;;;3.30;;
31308;SDS011;17936;52.446;10.840;2022-11-12T14:47:47;8.50;;;3.15;;
31308;SDS011;17936;52.446;10.840;2022-11-12T14:50:15;11.88;;;3.22;;
31308;SDS011;17936;52.446;10.840;2022-11-12T14:52:59;7.47;;;3.00;;
31308;SDS011;17936;52.446;10.840;2022-11-12T14:55:32;11.05;;;3.17;;
31308;SDS011;17936;52.446;10.840;2022-11-12T14:58:00;7.30;;;3.75;;
31308;SDS011;17936;52.446;10.840;2022-11-12T15:02:55;10.32;;;4.13;;
31308;SDS011;17936;52.446;10.840;2022-11-12T15:05:21;11.20;;;4.15;;
31308;SDS011;17936;52.446;10.840;2022-11-12T15:08:01;11.40;;;3.83;;
31308;SDS011;17936;52.446;10.840;2022-11-12T15:10:42;7.85;;;3.22;;
31308;SDS011;17936;52.446;10.840;2022-11-12T15:13:19;13.35;;;4.07;;
31308;SDS011;17936;52.446;10.840;2022-11-12T15:15:53;13.82;;;6.57;;
31308;SDS011;17936;52.446;10.840;2022-11-12T15:18:25;9.18;;;4.65;;
31308;SDS011;17936;52.446;10.840;2022-11-12T15:23:46;10.10;;;3.45;;
31308;SDS011;17936;52.446;10.840;2022-11-12T15:26:13;8.15;;;3.13;;
31308;SDS011;17936;52.446;10.840;2022-11-12T15:31:56;9.05;;;4.40;;
31308;SDS011;17936;52.446;10.840;2022-11-12T15:34:29;8.30;;;4.28;;
31308;SDS011;17936;52.446;10.840;2022-11-12T15:36:54;9.35;;;4.90;;
31308;SDS011;17936;52.446;10.840;2022-11-12T15:39:21;12.88;;;4.20;;
31308;SDS011;17936;52.446;10.840;2022-11-12T15:42:03;8.95;;;4.63;;
31308;SDS011;17936;52.446;10.840;2022-11-12T15:44:37;9.18;;;4.47;;
31308;SDS011;17936;52.446;10.840;2022-11-12T15:47:02;16.02;;;9.15;;
31308;SDS011;17936;52.446;10.840;2022-11-12T15:49:28;17.17;;;9.23;;
31308;SDS011;17936;52.446;10.840;2022-11-12T15:51:54;16.00;;;9.65;;
31308;SDS011;17936;52.446;10.840;2022-11-12T15:54:19;17.10;;;10.45;;
31308;SDS011;17936;52.446;10.840;2022-11-12T15:56:45;24.13;;;12.35;;
31308;SDS011;17936;52.446;10.840;2022-11-12T15:59:12;22.02;;;13.27;;
31308;SDS011;17936;52.446;10.840;2022-11-12T16:01:40;24.95;;;12.05;;
31308;SDS011;17936;52.446;10.840;2022-11-12T16:04:11;20.67;;;12.25;;
31308;SDS011;17936;52.446;10.840;2022-11-12T16:06:37;19.25;;;11.73;;
31308;SDS011;17936;52.446;10.840;2022-11-12T16:09:03;21.20;;;11.60;;
31308;SDS011;17936;52.446;10.840;2022-11-12T16:11:29;21.08;;;10.95;;
31308;SDS011;17936;52.446;10.840;2022-11-12T16:14:00;20.60;;;10.73;;
31308;SDS011;17936;52.446;10.840;2022-11-12T16:16:31;17.42;;;10.07;;
31308;SDS011;17936;52.446;10.840;2022-11-12T16:18:57;20.48;;;10.07;;
31308;SDS011;17936;52.446;10.840;2022-11-12T16:21:23;21.08;;;8.73;;
31308;SDS011;17936;52.446;10.840;2022-11-12T16:23:48;16.60;;;9.20;;
31308;SDS011;17936;52.446;10.840;2022-11-12T16:26:14;17.08;;;8.25;;
31308;SDS011;17936;52.446;10.840;2022-11-12T16:28:44;17.50;;;8.50;;
31308;SDS011;17936;52.446;10.840;2022-11-12T16:31:09;17.23;;;8.07;;
31308;SDS011;17936;52.446;10.840;2022-11-12T16:33:35;13.45;;;7.90;;
31308;SDS011;17936;52.446;10.840;2022-11-12T16:36:00;15.38;;;8.25;;
31308;SDS011;17936;52.446;10.840;2022-11-12T16:38:26;15.90;;;8.18;;
31308;SDS011;17936;52.446;10.840;2022-11-12T16:40:51;13.20;;;6.47;;
31308;SDS011;17936;52.446;10.840;2022-11-12T16:43:17;12.20;;;6.38;;
31308;SDS011;17936;52.446;10.840;2022-11-12T16:45:45;11.93;;;6.25;;
31308;SDS011;17936;52.446;10.840;2022-11-12T16:48:18;16.20;;;6.72;;
31308;SDS011;17936;52.446;10.840;2022-11-12T16:50:45;11.90;;;6.85;;
31308;SDS011;17936;52.446;10.840;2022-11-12T16:53:12;12.98;;;6.57;;
31308;SDS011;17936;52.446;10.840;2022-11-12T16:55:37;9.95;;;6.00;;
31308;SDS011;17936;52.446;10.840;2022-11-12T16:58:03;11.73;;;5.72;;
31308;SDS011;17936;52.446;10.840;2022-11-12T17:00:28;14.13;;;6.97;;
31308;SDS011;17936;52.446;10.840;2022-11-12T17:02:54;12.10;;;6.68;;